Terminal Aerodrome Forecast
Issued by NWS

Home | Current Version | Previous Version | Text Only | Print | Product List | Glossary On
Versions: 1 2 3 4 5 6 7 8 9 10 11 12 13 14 15 16 17 18 19
510
FTUS43 KMQT 201134 AAC
TAFCMX
TAF AMD
KCMX 201134Z 2012/2112 09015G25KT 2SM -FZRASN OVC003
     FM201400 06007KT 1SM -FZRASN OVC008
     FM201900 02004KT 2SM -FZDZSN OVC008
     FM202300 32008KT P6SM OVC008
     FM210200 28007KT P6SM OVC020
     FM210400 28008KT 6SM -SHSN BKN015=

USA.gov is the U.S. government's official web portal to all federal, state and local government web resources and services.